createdAt,value
2017-11-11T00:01:48.612Z,1.93
2017-11-11T00:04:14.594Z,1.20
2017-11-11T00:06:40.596Z,1.40
2017-11-11T00:09:06.559Z,1.47
2017-11-11T00:11:32.543Z,1.50
2017-11-11T00:13:58.550Z,1.60
2017-11-11T00:16:25.252Z,1.17
2017-11-11T00:18:51.242Z,1.27
2017-11-11T00:21:17.994Z,1.33
2017-11-11T00:23:44.706Z,1.30
2017-11-11T00:26:10.668Z,0.90
2017-11-11T00:28:36.649Z,1.37
2017-11-11T00:31:02.611Z,0.90
2017-11-11T00:33:28.661Z,1.23
2017-11-11T00:35:54.619Z,1.10
2017-11-11T00:38:20.611Z,0.90
2017-11-11T00:40:46.567Z,0.80
2017-11-11T00:43:12.551Z,0.93
2017-11-11T00:45:38.552Z,1.00
2017-11-11T00:48:04.564Z,1.13
2017-11-11T00:50:30.542Z,1.20
2017-11-11T00:52:57.300Z,0.90
2017-11-11T00:55:23.309Z,1.03
2017-11-11T00:57:49.270Z,1.03
2017-11-11T01:00:15.215Z,0.70
2017-11-11T01:02:41.947Z,1.23
2017-11-11T01:05:07.907Z,0.97
2017-11-11T01:07:34.643Z,1.20
2017-11-11T01:10:01.371Z,1.73
2017-11-11T01:12:27.378Z,1.43
2017-11-11T01:14:53.367Z,1.80
2017-11-11T01:17:19.366Z,1.30
2017-11-11T01:19:45.318Z,0.90
2017-11-11T01:22:11.287Z,1.50
2017-11-11T01:24:37.287Z,2.30
2017-11-11T01:27:03.301Z,1.83
2017-11-11T01:29:29.382Z,1.60
2017-11-11T01:31:56.115Z,1.57
2017-11-11T01:34:22.073Z,1.33
2017-11-11T01:36:48.805Z,1.80
2017-11-11T01:39:14.794Z,2.10
2017-11-11T01:41:40.747Z,2.37
2017-11-11T01:44:06.698Z,2.30
2017-11-11T01:46:32.707Z,2.07
2017-11-11T01:48:58.699Z,1.87
2017-11-11T01:51:25.442Z,1.57
2017-11-11T01:53:51.427Z,1.63
2017-11-11T01:56:17.371Z,2.43
2017-11-11T01:58:43.352Z,2.13
2017-11-11T02:01:09.346Z,2.00
2017-11-11T02:03:35.330Z,2.00
2017-11-11T02:06:01.311Z,2.00
2017-11-11T02:08:27.347Z,2.60
2017-11-11T02:10:53.301Z,1.97
2017-11-11T02:13:19.307Z,2.00
2017-11-11T02:15:45.267Z,2.40
2017-11-11T02:18:11.216Z,2.13
2017-11-11T02:20:37.200Z,2.40
2017-11-11T02:23:03.944Z,2.67
2017-11-11T02:25:29.911Z,2.60
2017-11-11T02:27:55.875Z,2.10
2017-11-11T02:30:21.871Z,2.47
2017-11-11T02:32:48.622Z,2.20
2017-11-11T02:35:15.318Z,3.23
2017-11-11T02:37:41.275Z,2.80
2017-11-11T02:40:07.262Z,2.40
2017-11-11T02:42:33.278Z,2.00
2017-11-11T02:45:00.017Z,2.10
2017-11-11T02:47:26.710Z,2.53
2017-11-11T02:49:52.720Z,2.60
2017-11-11T02:52:18.663Z,3.03
2017-11-11T02:54:44.604Z,3.23
2017-11-11T02:57:10.619Z,2.87
2017-11-11T02:59:37.411Z,2.63
2017-11-11T03:02:03.386Z,2.90
2017-11-11T03:04:29.409Z,2.60
2017-11-11T03:06:55.352Z,3.37
2017-11-11T03:09:21.298Z,2.33
2017-11-11T03:11:47.295Z,2.20
2017-11-11T03:14:13.230Z,2.23
2017-11-11T03:16:39.165Z,3.20
2017-11-11T03:19:05.134Z,2.77
2017-11-11T03:21:31.150Z,2.73
2017-11-11T03:23:57.117Z,2.17
2017-11-11T03:26:23.858Z,2.50
2017-11-11T03:28:49.806Z,2.27
2017-11-11T03:31:15.738Z,3.17
2017-11-11T03:33:41.725Z,2.00
2017-11-11T03:36:07.682Z,2.47
2017-11-11T03:38:33.647Z,2.97
2017-11-11T03:40:59.667Z,2.10
2017-11-11T03:43:25.622Z,2.43
2017-11-11T03:45:51.588Z,2.70
2017-11-11T03:48:18.300Z,2.70
2017-11-11T03:50:44.247Z,2.50
2017-11-11T03:53:10.219Z,2.93
2017-11-11T03:55:36.216Z,2.90
2017-11-11T03:58:02.233Z,2.70
2017-11-11T04:00:28.193Z,2.60
2017-11-11T04:02:54.142Z,2.50
2017-11-11T04:05:20.875Z,4.43
2017-11-11T04:07:46.815Z,1.93
2017-11-11T04:10:12.750Z,2.03
2017-11-11T04:12:38.742Z,3.10
2017-11-11T04:15:04.725Z,2.20
2017-11-11T04:17:30.689Z,2.13
2017-11-11T04:19:56.651Z,2.00
2017-11-11T04:22:22.631Z,2.20
2017-11-11T04:24:48.587Z,2.23
2017-11-11T04:27:15.306Z,2.47
2017-11-11T04:29:41.254Z,2.53
2017-11-11T04:32:07.194Z,2.80
2017-11-11T04:34:33.218Z,2.30
2017-11-11T04:36:59.225Z,3.83
2017-11-11T04:39:25.207Z,2.70
2017-11-11T04:41:51.898Z,2.40
2017-11-11T04:44:17.882Z,2.70
2017-11-11T04:46:43.825Z,3.57
2017-11-11T04:49:09.771Z,2.87
2017-11-11T04:51:36.497Z,2.83
2017-11-11T04:54:02.461Z,2.57
2017-11-11T04:56:29.209Z,2.50
2017-11-11T04:58:55.177Z,2.60
2017-11-11T05:01:21.165Z,2.50
2017-11-11T05:03:47.097Z,2.67
2017-11-11T05:06:13.084Z,3.27
2017-11-11T05:08:39.094Z,3.03
2017-11-11T05:11:05.787Z,2.70
2017-11-11T05:13:31.793Z,2.10
2017-11-11T05:15:58.571Z,3.27
2017-11-11T05:18:24.583Z,1.87
2017-11-11T05:20:50.617Z,3.07
2017-11-11T05:23:16.607Z,2.10
2017-11-11T05:25:42.555Z,3.07
2017-11-11T05:28:08.498Z,2.40
2017-11-11T05:30:34.526Z,2.23
2017-11-11T05:33:00.521Z,2.43
2017-11-11T05:35:26.457Z,2.43
2017-11-11T05:37:52.451Z,2.40
2017-11-11T05:40:19.142Z,2.90
2017-11-11T05:42:45.103Z,2.90
2017-11-11T05:45:11.127Z,2.80
2017-11-11T05:47:37.126Z,2.63
2017-11-11T05:50:03.838Z,3.03
2017-11-11T05:52:29.825Z,3.33
2017-11-11T05:54:55.807Z,2.33
2017-11-11T05:57:21.806Z,3.03
2017-11-11T05:59:47.763Z,2.40
2017-11-11T06:02:13.761Z,2.93
2017-11-11T06:04:40.449Z,2.30
2017-11-11T06:07:06.468Z,3.13
2017-11-11T06:09:32.483Z,2.47
2017-11-11T06:11:59.230Z,2.43
2017-11-11T06:14:33.209Z,2.67
2017-11-11T06:16:59.173Z,2.47
2017-11-11T06:19:25.171Z,2.00
2017-11-11T06:21:51.179Z,1.93
2017-11-11T06:24:17.121Z,1.90
2017-11-11T06:26:43.079Z,2.30
2017-11-11T06:29:09.071Z,2.63
2017-11-11T06:31:35.785Z,2.83
2017-11-11T06:34:01.803Z,3.20
2017-11-11T06:36:27.819Z,2.70
2017-11-11T06:38:53.783Z,3.20
2017-11-11T06:41:19.790Z,2.73
2017-11-11T06:43:52.787Z,2.23
2017-11-11T06:46:18.783Z,3.50
2017-11-11T06:48:44.739Z,3.33
2017-11-11T06:51:19.274Z,3.23
2017-11-11T06:53:45.205Z,3.37
2017-11-11T06:56:11.158Z,3.03
2017-11-11T06:58:37.138Z,3.00
2017-11-11T07:01:03.143Z,3.40
2017-11-11T07:03:29.842Z,3.47
2017-11-11T07:05:55.834Z,3.27
2017-11-11T07:08:22.573Z,2.97
2017-11-11T07:10:48.514Z,2.83
2017-11-11T07:13:15.198Z,3.53
2017-11-11T07:15:41.165Z,3.20
2017-11-11T07:18:07.123Z,3.40
2017-11-11T07:20:33.122Z,5.63
2017-11-11T07:22:59.067Z,3.70
2017-11-11T07:25:25.055Z,3.90
2017-11-11T07:27:51.763Z,4.20
2017-11-11T07:30:17.744Z,3.70
2017-11-11T07:32:44.427Z,3.93
2017-11-11T07:35:10.370Z,3.27
2017-11-11T07:37:36.376Z,4.43
2017-11-11T07:40:02.347Z,3.90
2017-11-11T07:42:28.291Z,4.93
2017-11-11T07:44:54.281Z,3.63
2017-11-11T07:47:20.227Z,4.73
2017-11-11T07:49:46.190Z,4.30
2017-11-11T07:52:12.184Z,3.53
2017-11-11T07:54:38.204Z,4.87
2017-11-11T07:57:04.938Z,5.33
2017-11-11T07:59:30.883Z,4.53
2017-11-11T08:01:56.870Z,3.13
2017-11-11T08:04:22.867Z,4.00
2017-11-11T08:06:49.629Z,5.70
2017-11-11T08:09:16.359Z,4.17
2017-11-11T08:11:42.305Z,3.90
2017-11-11T08:14:08.305Z,3.50
2017-11-11T08:16:34.259Z,6.97
2017-11-11T08:19:00.216Z,4.40
2017-11-11T08:21:26.953Z,3.13
2017-11-11T08:23:53.629Z,5.37
2017-11-11T08:26:20.388Z,5.20
2017-11-11T08:28:47.081Z,4.50
2017-11-11T08:31:13.031Z,4.30
2017-11-11T08:33:39.036Z,6.60
2017-11-11T08:36:05.042Z,4.43
2017-11-11T08:38:31.726Z,3.90
2017-11-11T08:40:57.713Z,5.93
2017-11-11T08:43:23.688Z,7.27
2017-11-11T08:45:49.653Z,4.63
2017-11-11T08:48:15.731Z,3.27
2017-11-11T08:50:41.766Z,2.87
2017-11-11T08:53:07.763Z,3.70
2017-11-11T08:55:33.746Z,3.17
2017-11-11T08:58:00.502Z,3.87
2017-11-11T09:00:27.230Z,3.93
2017-11-11T09:02:53.194Z,3.40
2017-11-11T09:05:19.987Z,3.23
2017-11-11T09:07:45.941Z,2.30
2017-11-11T09:10:11.964Z,3.60
2017-11-11T09:12:37.928Z,4.20
2017-11-11T09:15:03.915Z,2.93
2017-11-11T09:17:29.859Z,4.27
2017-11-11T09:19:55.846Z,2.77
2017-11-11T09:22:21.827Z,3.27
2017-11-11T09:24:47.797Z,3.00
2017-11-11T09:27:13.773Z,3.83
2017-11-11T09:29:40.479Z,3.47
2017-11-11T09:32:06.534Z,3.20
2017-11-11T09:34:32.490Z,4.50
2017-11-11T09:36:59.229Z,3.27
2017-11-11T09:39:25.157Z,4.43
2017-11-11T09:41:51.103Z,2.97
2017-11-11T09:44:17.091Z,3.30
2017-11-11T09:46:43.102Z,3.27
2017-11-11T09:49:09.879Z,3.67
2017-11-11T09:51:35.829Z,3.10
2017-11-11T09:54:01.817Z,2.70
2017-11-11T09:56:28.555Z,3.10
2017-11-11T09:58:54.506Z,3.47
2017-11-11T10:01:21.230Z,4.23
2017-11-11T10:03:47.175Z,3.27
2017-11-11T10:06:13.154Z,3.10
2017-11-11T10:08:39.164Z,2.93
2017-11-11T10:11:05.886Z,2.97
2017-11-11T10:13:31.868Z,2.73
2017-11-11T10:15:59.349Z,3.33
2017-11-11T10:18:25.371Z,3.30
2017-11-11T10:20:51.317Z,3.10
2017-11-11T10:23:17.259Z,3.30
2017-11-11T10:25:43.251Z,3.80
2017-11-11T10:28:09.210Z,3.17
2017-11-11T10:30:35.947Z,3.57
2017-11-11T10:33:01.897Z,2.90
2017-11-11T10:35:28.608Z,3.53
2017-11-11T10:37:54.551Z,3.77
2017-11-11T10:40:20.525Z,3.67
2017-11-11T10:42:47.215Z,5.37
2017-11-11T10:45:13.185Z,2.87
2017-11-11T10:47:40.649Z,4.27
2017-11-11T10:50:06.643Z,2.90
2017-11-11T10:52:32.573Z,2.40
2017-11-11T10:54:58.570Z,3.73
2017-11-11T10:57:24.517Z,3.20
2017-11-11T10:59:51.203Z,7.40
2017-11-11T11:02:17.196Z,3.07
2017-11-11T11:04:43.877Z,3.37
2017-11-11T11:07:09.857Z,6.00
2017-11-11T11:09:46.012Z,5.40
2017-11-11T11:12:12.013Z,3.37
2017-11-11T11:14:38.887Z,5.30
2017-11-11T11:17:05.600Z,5.07
2017-11-11T11:19:31.543Z,4.53
2017-11-11T11:21:57.516Z,4.03
2017-11-11T11:24:23.454Z,5.17
2017-11-11T11:26:49.408Z,5.50
2017-11-11T11:29:15.394Z,4.20
2017-11-11T11:31:42.093Z,4.20
2017-11-11T11:34:08.051Z,4.17
2017-11-11T11:36:34.042Z,4.13
2017-11-11T11:38:59.986Z,3.97
2017-11-11T11:41:25.926Z,3.90
2017-11-11T11:43:51.959Z,4.63
2017-11-11T11:46:17.919Z,4.40
2017-11-11T11:48:43.867Z,4.00
2017-11-11T11:51:09.899Z,4.17
2017-11-11T11:53:36.665Z,4.93
2017-11-11T11:56:02.619Z,4.33
2017-11-11T11:58:29.337Z,4.57
2017-11-11T12:00:55.317Z,4.00
2017-11-11T12:03:22.010Z,3.90
2017-11-11T12:05:48.014Z,4.23
2017-11-11T12:08:13.955Z,4.07
2017-11-11T12:10:39.903Z,3.60
2017-11-11T12:13:05.890Z,4.23
2017-11-11T12:15:31.838Z,3.93
2017-11-11T12:17:58.575Z,4.00
2017-11-11T12:20:24.517Z,4.20
2017-11-11T12:22:50.488Z,3.17
2017-11-11T12:25:16.453Z,3.93
2017-11-11T12:27:42.455Z,3.97
2017-11-11T12:30:08.414Z,4.57
2017-11-11T12:32:34.397Z,3.03
2017-11-11T12:35:01.119Z,3.40
2017-11-11T12:37:27.072Z,3.27
2017-11-11T12:39:53.049Z,3.97
2017-11-11T12:42:19.054Z,2.97
2017-11-11T12:44:44.989Z,2.90
2017-11-11T12:47:10.969Z,3.23
2017-11-11T12:49:36.912Z,3.60
2017-11-11T12:52:02.929Z,3.10
2017-11-11T12:54:28.908Z,3.83
2017-11-11T12:56:54.915Z,3.33
2017-11-11T12:59:20.887Z,4.27
2017-11-11T13:01:46.873Z,3.27
2017-11-11T13:04:12.890Z,3.50
2017-11-11T13:06:39.597Z,3.80
2017-11-11T13:09:05.605Z,4.43
2017-11-11T13:11:31.579Z,3.93
2017-11-11T13:13:57.596Z,3.90
2017-11-11T13:16:23.543Z,4.03
2017-11-11T13:18:49.500Z,3.27
2017-11-11T13:21:15.478Z,3.33
2017-11-11T13:23:41.427Z,4.30
2017-11-11T13:26:07.455Z,3.17
2017-11-11T13:28:33.393Z,3.30
2017-11-11T13:30:59.338Z,3.40
2017-11-11T13:33:25.321Z,3.20
2017-11-11T13:35:51.278Z,3.53
2017-11-11T13:38:18.003Z,3.57
2017-11-11T13:40:43.991Z,3.63
2017-11-11T13:43:10.062Z,4.00
2017-11-11T13:45:36.045Z,3.77
2017-11-11T13:48:02.726Z,3.27
2017-11-11T13:50:28.718Z,3.13
2017-11-11T13:52:54.657Z,4.10
2017-11-11T13:55:21.389Z,3.70
2017-11-11T13:57:47.325Z,3.37
2017-11-11T14:00:13.315Z,3.60
2017-11-11T14:02:39.269Z,4.50
2017-11-11T14:05:05.205Z,4.07
2017-11-11T14:07:31.189Z,4.37
2017-11-11T14:09:57.902Z,3.80
2017-11-11T14:12:23.853Z,4.30
2017-11-11T14:14:50.581Z,4.33
2017-11-11T14:17:16.529Z,4.20
2017-11-11T14:19:42.519Z,3.87
2017-11-11T14:22:08.481Z,4.00
2017-11-11T14:24:34.446Z,4.10
2017-11-11T14:27:00.521Z,4.30
2017-11-11T14:29:27.220Z,3.83
2017-11-11T14:31:53.170Z,4.03
2017-11-11T14:34:19.272Z,3.70
2017-11-11T14:36:45.339Z,4.47
2017-11-11T14:39:11.323Z,3.30
2017-11-11T14:41:38.053Z,4.30
2017-11-11T14:44:04.022Z,4.73
2017-11-11T14:46:30.014Z,4.60
2017-11-11T14:48:56.017Z,4.13
2017-11-11T14:51:21.945Z,4.57
2017-11-11T14:53:47.942Z,5.40
2017-11-11T14:56:14.675Z,5.20
2017-11-11T14:58:40.652Z,4.80
2017-11-11T15:01:06.652Z,4.83
2017-11-11T15:03:32.742Z,4.83
2017-11-11T15:05:58.747Z,5.23
2017-11-11T15:08:25.498Z,5.70
2017-11-11T15:10:52.250Z,3.93
2017-11-11T15:13:18.941Z,4.60
2017-11-11T15:15:44.940Z,4.90
2017-11-11T15:18:11.645Z,5.63
2017-11-11T15:20:37.585Z,5.67
2017-11-11T15:23:03.557Z,5.50
2017-11-11T15:25:29.507Z,5.67
2017-11-11T15:27:56.223Z,6.07
2017-11-11T15:30:22.240Z,4.57
2017-11-11T15:32:48.251Z,5.90
2017-11-11T15:35:14.197Z,6.37
2017-11-11T15:37:40.208Z,5.00
2017-11-11T15:40:06.180Z,5.70
2017-11-11T15:42:32.169Z,5.90
2017-11-11T15:44:58.854Z,5.03
2017-11-11T15:47:24.805Z,5.57
2017-11-11T15:49:50.790Z,5.40
2017-11-11T15:52:17.490Z,5.10
2017-11-11T15:54:43.573Z,6.00
2017-11-11T15:57:09.551Z,5.90
2017-11-11T15:59:35.555Z,5.57
2017-11-11T16:02:02.245Z,6.70
2017-11-11T16:04:28.246Z,6.53
2017-11-11T16:06:54.977Z,7.27
2017-11-11T16:09:20.931Z,6.67
2017-11-11T16:11:47.704Z,5.30
2017-11-11T16:14:14.377Z,7.50
2017-11-11T16:16:40.406Z,5.97
2017-11-11T16:19:06.390Z,5.00
2017-11-11T16:21:32.410Z,7.03
2017-11-11T16:23:58.373Z,6.97
2017-11-11T16:26:24.321Z,7.97
2017-11-11T16:28:51.046Z,7.00
2017-11-11T16:31:16.992Z,6.53
2017-11-11T16:33:42.979Z,5.60
2017-11-11T16:36:09.734Z,5.13
2017-11-11T16:38:35.719Z,4.87
2017-11-11T16:41:01.657Z,3.70
2017-11-11T16:43:27.647Z,3.90
2017-11-11T16:45:53.598Z,2.60
2017-11-11T16:48:19.539Z,3.00
2017-11-11T16:50:45.571Z,2.50
2017-11-11T16:53:11.585Z,2.77
2017-11-11T16:55:37.522Z,4.40
2017-11-11T16:58:03.513Z,3.00
2017-11-11T17:00:30.235Z,3.37
2017-11-11T17:02:56.188Z,2.73
2017-11-11T17:05:22.183Z,3.50
2017-11-11T17:07:48.129Z,3.93
2017-11-11T17:10:14.136Z,4.60
2017-11-11T17:12:40.107Z,4.50
2017-11-11T17:15:06.055Z,3.60
2017-11-11T17:17:32.089Z,3.70
2017-11-11T17:19:58.053Z,3.60
2017-11-11T17:22:24.004Z,3.60
2017-11-11T17:24:50.730Z,4.53
2017-11-11T17:27:16.806Z,3.40
2017-11-11T17:29:42.819Z,5.20
2017-11-11T17:32:09.515Z,5.90
2017-11-11T17:34:35.509Z,4.83
2017-11-11T17:37:02.205Z,5.50
2017-11-11T17:39:28.243Z,5.50
2017-11-11T17:41:54.280Z,7.63
2017-11-11T17:44:20.213Z,6.80
2017-11-11T17:46:46.190Z,6.27
2017-11-11T17:49:12.142Z,4.20
2017-11-11T17:51:38.143Z,5.23
2017-11-11T17:54:04.122Z,5.13
2017-11-11T17:56:30.086Z,4.10
2017-11-11T17:58:56.090Z,5.90
2017-11-11T18:01:22.081Z,4.27
2017-11-11T18:03:48.079Z,3.80
2017-11-11T18:06:14.074Z,5.00
2017-11-11T18:08:40.047Z,3.80
2017-11-11T18:11:06.087Z,4.07
2017-11-11T18:13:32.125Z,4.97
2017-11-11T18:15:58.083Z,4.70
2017-11-11T18:18:24.097Z,5.10
2017-11-11T18:20:50.082Z,5.20
2017-11-11T18:23:16.056Z,3.40
2017-11-11T18:25:42.776Z,4.10
2017-11-11T18:28:08.756Z,4.20
2017-11-11T18:30:34.754Z,4.30
2017-11-11T18:33:00.787Z,4.30
2017-11-11T18:35:26.736Z,5.07
2017-11-11T18:37:52.733Z,5.77
2017-11-11T18:40:18.678Z,4.27
2017-11-11T18:42:44.660Z,7.47
2017-11-11T18:45:11.391Z,4.43
2017-11-11T18:47:37.370Z,6.10
2017-11-11T18:50:03.310Z,6.27
2017-11-11T18:52:29.304Z,6.47
2017-11-11T18:54:55.240Z,4.90
2017-11-11T18:57:21.254Z,4.53
2017-11-11T18:59:47.213Z,4.70
2017-11-11T19:02:13.163Z,4.37
2017-11-11T19:04:39.905Z,4.57
2017-11-11T19:07:05.845Z,5.23
2017-11-11T19:09:32.567Z,5.03
2017-11-11T19:11:58.542Z,4.63
2017-11-11T19:14:25.250Z,5.03
2017-11-11T19:16:51.220Z,4.07
2017-11-11T19:19:17.198Z,4.27
2017-11-11T19:21:43.191Z,5.33
2017-11-11T19:24:09.889Z,3.17
2017-11-11T19:26:35.859Z,5.10
2017-11-11T19:29:01.830Z,6.00
2017-11-11T19:31:28.573Z,4.50
2017-11-11T19:33:55.269Z,4.70
2017-11-11T19:36:21.320Z,3.90
2017-11-11T19:38:47.265Z,4.00
2017-11-11T19:41:13.252Z,3.63
2017-11-11T19:43:39.287Z,4.37
2017-11-11T19:46:05.233Z,4.90
2017-11-11T19:48:31.222Z,3.83
2017-11-11T19:50:57.166Z,3.70
2017-11-11T19:53:23.128Z,4.00
2017-11-11T19:55:49.851Z,4.20
2017-11-11T19:58:15.839Z,3.70
2017-11-11T20:00:41.803Z,5.03
2017-11-11T20:03:07.822Z,3.70
2017-11-11T20:05:33.859Z,3.67
2017-11-11T20:07:59.854Z,3.53
2017-11-11T20:10:26.639Z,4.20
2017-11-11T20:12:52.625Z,4.20
2017-11-11T20:15:18.578Z,4.17
2017-11-11T20:17:45.275Z,3.10
2017-11-11T20:20:11.260Z,3.03
2017-11-11T20:22:37.267Z,2.90
2017-11-11T20:25:03.271Z,3.77
2017-11-11T20:27:29.214Z,4.23
2017-11-11T20:29:55.193Z,4.13
2017-11-11T20:32:21.145Z,3.20
2017-11-11T20:34:47.866Z,3.30
2017-11-11T20:37:13.822Z,2.70
2017-11-11T20:39:39.818Z,3.50
2017-11-11T20:42:05.785Z,4.30
2017-11-11T20:44:31.791Z,3.17
2017-11-11T20:46:57.744Z,3.30
2017-11-11T20:49:23.699Z,3.27
2017-11-11T20:51:49.682Z,3.73
2017-11-11T20:54:15.613Z,3.80
2017-11-11T20:56:41.623Z,4.97
2017-11-11T20:59:08.373Z,4.00
2017-11-11T21:01:35.074Z,4.03
2017-11-11T21:04:01.024Z,4.00
2017-11-11T21:06:27.019Z,4.20
2017-11-11T21:08:52.999Z,3.40
2017-11-11T21:11:19.005Z,3.57
2017-11-11T21:13:44.983Z,4.17
2017-11-11T21:16:10.990Z,3.67
2017-11-11T21:18:36.954Z,3.97
2017-11-11T21:21:02.889Z,4.70
2017-11-11T21:23:28.874Z,4.60
2017-11-11T21:25:54.825Z,4.20
2017-11-11T21:28:20.775Z,4.30
2017-11-11T21:30:46.799Z,4.60
2017-11-11T21:33:12.822Z,4.20
2017-11-11T21:35:38.855Z,3.87
2017-11-11T21:38:04.840Z,4.00
2017-11-11T21:40:30.871Z,3.80
2017-11-11T21:42:57.607Z,4.13
2017-11-11T21:45:23.570Z,4.40
2017-11-11T21:47:49.528Z,3.33
2017-11-11T21:50:16.254Z,3.13
2017-11-11T21:52:42.207Z,3.40
2017-11-11T21:55:08.228Z,3.37
2017-11-11T21:57:34.203Z,3.37
2017-11-11T22:00:00.150Z,4.03
2017-11-11T22:02:26.169Z,3.33
2017-11-11T22:04:52.903Z,4.20
2017-11-11T22:07:18.851Z,3.90
2017-11-11T22:09:45.537Z,4.10
2017-11-11T22:12:11.522Z,5.00
2017-11-11T22:14:37.506Z,3.77
2017-11-11T22:17:03.442Z,3.90
2017-11-11T22:19:29.446Z,3.47
2017-11-11T22:21:56.174Z,3.03
2017-11-11T22:24:22.117Z,4.00
2017-11-11T22:26:48.070Z,3.37
2017-11-11T22:29:14.803Z,3.83
2017-11-11T22:31:40.768Z,3.57
2017-11-11T22:34:07.499Z,3.07
2017-11-11T22:36:33.482Z,3.90
2017-11-11T22:38:59.447Z,3.67
2017-11-11T22:41:25.418Z,3.43
2017-11-11T22:43:59.202Z,4.07
2017-11-11T22:46:25.207Z,5.00
2017-11-11T22:48:51.189Z,3.90
2017-11-11T22:51:17.139Z,5.07
2017-11-11T22:53:43.135Z,4.10
2017-11-11T22:56:09.109Z,2.77
2017-11-11T22:58:35.087Z,3.87
2017-11-11T23:01:01.077Z,4.33
2017-11-11T23:03:27.038Z,4.97
2017-11-11T23:05:53.014Z,7.10
2017-11-11T23:08:19.011Z,4.90
2017-11-11T23:10:44.945Z,4.27
2017-11-11T23:13:11.642Z,4.00
2017-11-11T23:15:37.629Z,3.30
2017-11-11T23:18:03.599Z,3.17
2017-11-11T23:20:30.027Z,3.67
2017-11-11T23:22:55.974Z,3.20
2017-11-11T23:25:21.965Z,3.23
2017-11-11T23:27:47.937Z,5.00
2017-11-11T23:30:13.893Z,6.57
2017-11-11T23:32:39.945Z,5.83
2017-11-11T23:35:05.937Z,5.90
2017-11-11T23:37:31.873Z,4.90
2017-11-11T23:39:57.805Z,4.60
2017-11-11T23:42:23.831Z,3.90
2017-11-11T23:44:50.517Z,4.70
2017-11-11T23:47:16.494Z,4.37
2017-11-11T23:49:42.474Z,4.30
2017-11-11T23:52:08.483Z,4.50
2017-11-11T23:54:35.165Z,5.13
2017-11-11T23:57:01.150Z,4.83
2017-11-11T23:59:27.112Z,4.10
